createdAt,value
2019-01-14T00:03:52.117Z,7.02
2019-01-14T00:08:48.062Z,7.04
2019-01-14T00:13:44.060Z,7.00
2019-01-14T00:18:39.963Z,6.88
2019-01-14T00:23:35.861Z,6.87
2019-01-14T00:28:31.752Z,6.82
2019-01-14T00:33:27.794Z,6.83
2019-01-14T00:38:23.686Z,6.90
2019-01-14T00:43:20.239Z,6.94
2019-01-14T00:48:16.101Z,6.92
2019-01-14T00:53:11.999Z,6.79
2019-01-14T00:58:07.901Z,6.72
2019-01-14T01:03:03.890Z,6.74
2019-01-14T01:07:59.823Z,6.59
2019-01-14T01:12:55.718Z,6.53
2019-01-14T01:17:51.622Z,6.46
2019-01-14T01:22:47.710Z,6.32
2019-01-14T01:27:43.703Z,6.30
2019-01-14T01:32:39.801Z,6.12
2019-01-14T01:37:35.704Z,6.17
2019-01-14T01:42:31.594Z,6.07
2019-01-14T01:47:27.499Z,6.03
2019-01-14T01:52:23.390Z,6.10
2019-01-14T01:57:19.293Z,6.06
2019-01-14T02:02:15.211Z,5.97
2019-01-14T02:07:11.111Z,5.97
2019-01-14T02:12:07.004Z,5.87
2019-01-14T02:17:03.095Z,5.90
2019-01-14T02:21:58.993Z,5.78
2019-01-14T02:26:54.889Z,5.58
2019-01-14T02:31:50.808Z,5.62
2019-01-14T02:36:48.517Z,5.73
2019-01-14T02:41:44.623Z,5.67
2019-01-14T02:46:40.514Z,5.73
2019-01-14T02:51:36.966Z,5.72
2019-01-14T02:56:32.822Z,5.74
2019-01-14T03:01:28.761Z,5.74
2019-01-14T03:06:24.634Z,5.78
2019-01-14T03:11:20.529Z,5.79
2019-01-14T03:16:16.528Z,5.64
2019-01-14T03:21:12.418Z,5.55
2019-01-14T03:26:08.321Z,5.49
2019-01-14T03:31:04.325Z,5.35
2019-01-14T03:36:00.308Z,5.43
2019-01-14T03:40:56.836Z,5.40
2019-01-14T03:45:52.700Z,5.36
2019-01-14T03:50:48.692Z,5.33
2019-01-14T03:55:44.590Z,5.33
2019-01-14T04:00:40.511Z,5.41
2019-01-14T04:05:36.629Z,5.48
2019-01-14T04:10:32.517Z,5.45
2019-01-14T04:15:28.420Z,5.46
2019-01-14T04:20:24.349Z,5.48
2019-01-14T04:25:20.227Z,5.50
2019-01-14T04:30:21.387Z,5.42
2019-01-14T04:35:17.781Z,5.38
2019-01-14T04:40:14.270Z,5.33
2019-01-14T04:45:13.221Z,5.33
2019-01-14T04:50:12.724Z,5.36
2019-01-14T04:55:08.918Z,5.35
2019-01-14T05:00:08.633Z,5.35
2019-01-14T05:05:05.824Z,5.22
2019-01-14T05:10:05.207Z,5.16
2019-01-14T05:15:01.181Z,5.13
2019-01-14T05:19:57.805Z,5.13
2019-01-14T05:24:53.656Z,5.12
2019-01-14T05:29:49.591Z,5.09
2019-01-14T05:34:45.477Z,5.12
2019-01-14T05:39:41.375Z,5.08
2019-01-14T05:44:37.281Z,5.04
2019-01-14T05:49:34.612Z,5.03
2019-01-14T05:54:30.470Z,5.00
2019-01-14T05:59:26.426Z,4.97
2019-01-14T06:04:22.315Z,4.94
2019-01-14T06:09:18.209Z,4.87
2019-01-14T06:14:14.563Z,4.89
2019-01-14T06:19:11.371Z,4.86
2019-01-14T06:24:07.819Z,4.80
2019-01-14T06:29:04.261Z,4.80
2019-01-14T06:34:00.122Z,4.77
2019-01-14T06:38:56.229Z,4.77
2019-01-14T06:43:52.123Z,4.78
2019-01-14T06:48:49.441Z,4.84
2019-01-14T06:53:45.529Z,4.84
2019-01-14T06:58:41.446Z,4.84
2019-01-14T07:03:37.483Z,4.82
2019-01-14T07:08:33.378Z,4.85
2019-01-14T07:13:29.277Z,4.84
2019-01-14T07:18:25.189Z,4.84
2019-01-14T07:23:21.076Z,4.84
2019-01-14T07:28:16.978Z,4.81
2019-01-14T07:33:12.874Z,4.84
2019-01-14T07:38:08.766Z,4.80
2019-01-14T07:43:04.664Z,4.78
2019-01-14T07:48:00.553Z,4.69
2019-01-14T07:52:56.468Z,4.56
2019-01-14T07:57:52.368Z,4.56
2019-01-14T08:02:48.251Z,4.55
2019-01-14T08:07:44.564Z,4.53
2019-01-14T08:12:40.555Z,4.53
2019-01-14T08:17:36.465Z,4.46
2019-01-14T08:22:32.371Z,4.40
2019-01-14T08:27:28.265Z,4.33
2019-01-14T08:32:24.157Z,4.28
2019-01-14T08:37:20.150Z,4.36
2019-01-14T08:42:16.542Z,4.30
2019-01-14T08:47:12.435Z,4.26
2019-01-14T08:52:08.330Z,4.30
2019-01-14T08:57:04.317Z,4.35
2019-01-14T09:02:00.313Z,4.35
2019-01-14T09:06:56.179Z,4.31
2019-01-14T09:11:52.170Z,4.37
2019-01-14T09:16:48.078Z,4.30
2019-01-14T09:21:43.971Z,4.26
2019-01-14T09:26:39.962Z,4.39
2019-01-14T09:31:35.898Z,4.49
2019-01-14T09:36:31.947Z,4.60
2019-01-14T09:41:27.806Z,4.56
2019-01-14T09:46:23.798Z,4.60
2019-01-14T09:51:19.709Z,4.56
2019-01-14T09:56:15.600Z,4.65
2019-01-14T10:01:11.539Z,4.56
2019-01-14T10:06:07.526Z,4.47
2019-01-14T10:11:03.622Z,4.52
2019-01-14T10:15:59.510Z,4.73
2019-01-14T10:20:55.422Z,4.63
2019-01-14T10:25:51.633Z,4.53
2019-01-14T10:30:47.585Z,4.62
2019-01-14T10:35:43.450Z,4.72
2019-01-14T10:40:39.361Z,4.82
2019-01-14T10:45:35.257Z,4.80
2019-01-14T10:50:31.175Z,4.77
2019-01-14T10:55:27.187Z,4.71
2019-01-14T11:00:24.710Z,4.71
2019-01-14T11:05:26.567Z,4.87
2019-01-14T11:10:22.558Z,5.09
2019-01-14T11:15:20.162Z,4.92
2019-01-14T11:20:18.757Z,4.81
2019-01-14T11:25:14.847Z,4.69
2019-01-14T11:30:24.782Z,4.96
2019-01-14T11:35:20.674Z,4.90
2019-01-14T11:40:18.981Z,5.12
2019-01-14T11:45:14.973Z,5.00
2019-01-14T11:50:13.210Z,4.92
2019-01-14T11:55:09.302Z,4.93
2019-01-14T12:00:09.042Z,4.76
2019-01-14T12:05:06.758Z,3.70
2019-01-14T12:10:04.854Z,2.54
2019-01-14T12:15:00.847Z,2.40
2019-01-14T12:19:56.761Z,2.82
2019-01-14T12:24:52.658Z,3.14
2019-01-14T12:29:48.573Z,3.52
2019-01-14T12:34:44.451Z,4.02
2019-01-14T12:39:40.358Z,4.30
2019-01-14T12:44:36.253Z,4.38
2019-01-14T12:49:32.867Z,4.42
2019-01-14T12:54:28.721Z,4.56
2019-01-14T12:59:24.613Z,4.62
2019-01-14T13:04:20.505Z,4.50
2019-01-14T13:09:16.396Z,4.10
2019-01-14T13:14:12.316Z,3.86
2019-01-14T13:19:08.907Z,3.92
2019-01-14T13:24:04.898Z,4.21
2019-01-14T13:29:00.824Z,4.25
2019-01-14T13:33:56.711Z,4.47
2019-01-14T13:38:52.618Z,4.56
2019-01-14T13:43:48.611Z,4.70
2019-01-14T13:48:45.989Z,4.87
2019-01-14T13:53:41.993Z,4.97
2019-01-14T13:58:37.880Z,5.16
2019-01-14T14:03:33.820Z,4.55
2019-01-14T14:08:29.717Z,3.59
2019-01-14T14:13:25.615Z,3.90
2019-01-14T14:18:21.502Z,4.18
2019-01-14T14:23:17.464Z,4.48
2019-01-14T14:28:16.918Z,4.45
2019-01-14T14:33:12.911Z,4.43
2019-01-14T14:38:09.127Z,4.38
2019-01-14T14:43:05.115Z,4.40
2019-01-14T14:48:01.111Z,4.14
2019-01-14T14:52:57.785Z,3.49
2019-01-14T14:57:54.329Z,2.68
2019-01-14T15:02:51.018Z,2.78
2019-01-14T15:07:47.612Z,2.84
2019-01-14T15:12:44.084Z,2.87
2019-01-14T15:17:41.027Z,2.87
2019-01-14T15:22:37.601Z,2.83
2019-01-14T15:27:34.303Z,2.80
2019-01-14T15:32:30.829Z,2.91
2019-01-14T15:37:27.657Z,3.06
2019-01-14T15:42:24.123Z,3.14
2019-01-14T15:47:20.705Z,3.37
2019-01-14T15:52:17.192Z,3.50
2019-01-14T15:57:13.631Z,3.38
2019-01-14T16:02:10.053Z,3.13
2019-01-14T16:07:06.560Z,3.15
2019-01-14T16:12:03.041Z,3.04
2019-01-14T16:16:59.529Z,3.07
2019-01-14T16:21:55.537Z,3.06
2019-01-14T16:26:53.150Z,3.09
2019-01-14T16:31:49.696Z,3.09
2019-01-14T16:36:46.237Z,3.07
2019-01-14T16:41:42.742Z,3.04
2019-01-14T16:46:39.366Z,2.98
2019-01-14T16:51:35.259Z,2.96
2019-01-14T16:56:31.681Z,2.91
2019-01-14T17:01:27.561Z,2.99
2019-01-14T17:06:24.065Z,3.04
2019-01-14T17:11:20.175Z,3.04
2019-01-14T17:16:16.447Z,3.08
2019-01-14T17:21:12.972Z,3.14
2019-01-14T17:26:08.865Z,3.26
2019-01-14T17:31:04.778Z,3.26
2019-01-14T17:36:00.703Z,3.33
2019-01-14T17:40:56.597Z,3.36
2019-01-14T17:45:52.494Z,3.35
2019-01-14T17:50:48.385Z,3.36
2019-01-14T17:55:44.276Z,3.44
2019-01-14T18:00:40.875Z,3.48
2019-01-14T18:05:36.771Z,3.46
2019-01-14T18:10:39.662Z,3.49
2019-01-14T18:15:31.817Z,3.49
2019-01-14T18:20:28.210Z,4.48
2019-01-14T18:25:24.818Z,3.64
2019-01-14T18:30:20.762Z,3.62
2019-01-14T18:35:17.205Z,3.65
2019-01-14T18:40:14.794Z,3.62
2019-01-14T18:45:12.701Z,3.66
2019-01-14T18:50:17.577Z,3.72
2019-01-14T18:55:23.756Z,3.66
2019-01-14T19:00:35.869Z,3.70
2019-01-14T19:05:34.282Z,3.66
2019-01-14T19:10:55.624Z,3.57
2019-01-14T19:15:57.252Z,3.55
2019-01-14T19:20:53.825Z,3.63
2019-01-14T19:25:53.263Z,3.68
2019-01-14T19:30:49.897Z,3.60
2019-01-14T19:35:45.778Z,3.61
2019-01-14T19:40:42.443Z,3.57
2019-01-14T19:45:38.473Z,3.52
2019-01-14T19:50:34.466Z,3.48
2019-01-14T19:55:30.386Z,3.45
2019-01-14T20:00:28.232Z,3.44
2019-01-14T20:05:24.486Z,3.49
2019-01-14T20:10:20.402Z,3.53
2019-01-14T20:15:18.407Z,3.56
2019-01-14T20:20:16.014Z,3.53
2019-01-14T20:25:12.365Z,3.58
2019-01-14T20:30:11.558Z,3.55
2019-01-14T20:35:07.565Z,3.58
2019-01-14T20:40:07.436Z,3.62
2019-01-14T20:45:05.999Z,3.54
2019-01-14T20:50:09.982Z,3.57
2019-01-14T20:55:07.106Z,3.61
2019-01-14T21:00:38.070Z,3.60
2019-01-14T21:05:34.558Z,3.58
2019-01-14T21:10:31.307Z,3.57
2019-01-14T21:15:27.211Z,3.59
2019-01-14T21:20:23.256Z,3.51
2019-01-14T21:25:19.652Z,3.50
2019-01-14T21:30:21.401Z,3.45
2019-01-14T21:35:17.856Z,3.43
2019-01-14T21:40:13.953Z,3.44
2019-01-14T21:45:12.015Z,3.38
2019-01-14T21:50:13.217Z,3.28
2019-01-14T21:55:12.448Z,3.19
2019-01-14T22:00:11.849Z,3.10
2019-01-14T22:05:07.852Z,3.05
2019-01-14T22:10:13.155Z,3.10
2019-01-14T22:15:10.710Z,3.06
2019-01-14T22:20:12.867Z,3.15
2019-01-14T22:25:08.957Z,3.20
2019-01-14T22:30:14.164Z,3.23
2019-01-14T22:35:10.160Z,3.25
2019-01-14T22:40:09.601Z,3.25
2019-01-14T22:45:08.225Z,3.30
2019-01-14T22:50:07.744Z,3.32
2019-01-14T22:55:06.032Z,3.32
2019-01-14T23:00:10.416Z,3.36
2019-01-14T23:05:06.424Z,3.37
2019-01-14T23:10:06.520Z,3.38
2019-01-14T23:15:07.974Z,3.28
2019-01-14T23:20:06.797Z,3.33
2019-01-14T23:25:06.767Z,3.31
2019-01-14T23:30:10.032Z,3.26
2019-01-14T23:35:07.102Z,3.36
2019-01-14T23:40:05.107Z,3.30
2019-01-14T23:45:01.101Z,3.23
2019-01-14T23:49:57.829Z,3.22
2019-01-14T23:54:53.688Z,3.09
2019-01-14T23:59:49.616Z,2.99
